NKS3013 KBOS-TJSJ
Flight info
| Callsign | NKS3013 |
|---|---|
| Flight time | N/A |
| Altitude | 35000 |
| Route | BRUWN7 BRUWN DCT BORQE Y578 KAYYT/M078F360 DCT DASER DCT BALTN DCT MEGGG/M078F370 L456 HANCY/N0452F370 L456 THANK/N0458F360 DCT PLING/N0456F370 RTE7 SAALR |
| Aircraft | A321/M-SDE3FGHIRWXYZ/LB1 |
Departure
| Time | 2026-05-06 14:56 |
|---|---|
| Airport | Boston Logan International Airport (KBOS) |
Arrival
| Time | N/A |
|---|---|
| Airport | Luis Munoz Marin International Airport (TJSJ) |
| Time | Latitude | Longitude | Altitude | Speed | Heading |
|---|---|---|---|---|---|
| 2026-05-06 14:35 | 42.36398 | -71.01771 | 26 ft | 0 kts | 240° |
| 2026-05-06 14:46 | 42.36408 | -71.01748 | 26 ft | 4 kts | 238° |
| 2026-05-06 14:47 | 42.36422 | -71.01718 | 26 ft | 4 kts | 234° |
| 2026-05-06 14:47 | 42.36438 | -71.01689 | 28 ft | 4 kts | 230° |
| 2026-05-06 14:47 | 42.36457 | -71.01662 | 26 ft | 4 kts | 222° |
| 2026-05-06 14:47 | 42.36478 | -71.01641 | 29 ft | 4 kts | 199° |
| 2026-05-06 14:48 | 42.36479 | -71.01639 | 25 ft | 4 kts | 185° |
| 2026-05-06 14:48 | 42.36461 | -71.01620 | 25 ft | 4 kts | 129° |
| 2026-05-06 14:48 | 42.36447 | -71.01590 | 25 ft | 2 kts | 121° |
| 2026-05-06 14:48 | 42.36446 | -71.01588 | 26 ft | 0 kts | 121° |
| 2026-05-06 14:50 | 42.36445 | -71.01586 | 26 ft | 1 kts | 121° |
| 2026-05-06 14:50 | 42.36437 | -71.01567 | 30 ft | 5 kts | 121° |
| 2026-05-06 14:50 | 42.36410 | -71.01507 | 28 ft | 9 kts | 121° |
| 2026-05-06 14:51 | 42.36379 | -71.01425 | 30 ft | 10 kts | 112° |
| 2026-05-06 14:51 | 42.36378 | -71.01321 | 27 ft | 12 kts | 49° |
| 2026-05-06 14:51 | 42.36461 | -71.01273 | 29 ft | 15 kts | 19° |
| 2026-05-06 14:51 | 42.36566 | -71.01223 | 27 ft | 16 kts | 19° |
| 2026-05-06 14:52 | 42.36676 | -71.01170 | 28 ft | 17 kts | 19° |
| 2026-05-06 14:52 | 42.36793 | -71.01162 | 28 ft | 18 kts | 331° |
| 2026-05-06 14:52 | 42.36898 | -71.01211 | 28 ft | 17 kts | 25° |
| 2026-05-06 14:52 | 42.36994 | -71.01108 | 28 ft | 18 kts | 31° |
| 2026-05-06 14:53 | 42.37109 | -71.01031 | 25 ft | 19 kts | 25° |
| 2026-05-06 14:53 | 42.37229 | -71.00955 | 30 ft | 19 kts | 25° |
| 2026-05-06 14:53 | 42.37354 | -71.00879 | 26 ft | 20 kts | 21° |
| 2026-05-06 14:53 | 42.37488 | -71.00818 | 29 ft | 20 kts | 19° |
| 2026-05-06 14:54 | 42.37623 | -71.00757 | 30 ft | 21 kts | 18° |
| 2026-05-06 14:54 | 42.37749 | -71.00691 | 29 ft | 12 kts | 28° |
| 2026-05-06 14:54 | 42.37765 | -71.00587 | 28 ft | 13 kts | 108° |
| 2026-05-06 14:54 | 42.37707 | -71.00515 | 27 ft | 12 kts | 186° |
| 2026-05-06 14:55 | 42.37696 | -71.00520 | 25 ft | 0 kts | 198° |
| 2026-05-06 14:55 | 42.37663 | -71.00535 | 27 ft | 23 kts | 199° |
| 2026-05-06 14:55 | 42.37266 | -71.00726 | 27 ft | 96 kts | 200° |
| 2026-05-06 14:55 | 42.36441 | -71.01126 | 29 ft | 153 kts | 199° |
| 2026-05-06 14:56 | 42.35391 | -71.01622 | 570 ft | 158 kts | 191° |
| 2026-05-06 14:56 | 42.34301 | -71.01536 | 1278 ft | 161 kts | 162° |
| 2026-05-06 14:56 | 42.33334 | -71.00646 | 1691 ft | 182 kts | 133° |
| 2026-05-06 14:56 | 42.32501 | -70.99211 | 1931 ft | 204 kts | 133° |
| 2026-05-06 14:57 | 42.31676 | -70.97585 | 2373 ft | 219 kts | 121° |
| 2026-05-06 14:57 | 42.31276 | -70.95527 | 2943 ft | 240 kts | 101° |
| 2026-05-06 14:57 | 42.31458 | -70.93132 | 3236 ft | 271 kts | 85° |
| 2026-05-06 14:57 | 42.31834 | -70.90536 | 3651 ft | 289 kts | 84° |
| 2026-05-06 14:58 | 42.32236 | -70.87846 | 4338 ft | 295 kts | 83° |
| 2026-05-06 14:58 | 42.32642 | -70.85110 | 5056 ft | 300 kts | 84° |
| 2026-05-06 14:58 | 42.32979 | -70.82318 | 5767 ft | 301 kts | 92° |
| 2026-05-06 14:58 | 42.32864 | -70.79527 | 6481 ft | 296 kts | 107° |
| 2026-05-06 14:59 | 42.32268 | -70.76900 | 7184 ft | 290 kts | 122° |
| 2026-05-06 14:59 | 42.31413 | -70.74419 | 7891 ft | 292 kts | 122° |
| 2026-05-06 14:59 | 42.30547 | -70.71918 | 8567 ft | 295 kts | 123° |
| 2026-05-06 14:59 | 42.29469 | -70.69595 | 9244 ft | 289 kts | 137° |
| 2026-05-06 15:00 | 42.28042 | -70.67732 | 9901 ft | 283 kts | 151° |
| 2026-05-06 15:00 | 42.26388 | -70.66399 | 10530 ft | 281 kts | 161° |
| 2026-05-06 15:00 | 42.24561 | -70.65202 | 10695 ft | 303 kts | 161° |
| 2026-05-06 15:00 | 42.22593 | -70.63921 | 10824 ft | 325 kts | 160° |
| 2026-05-06 15:01 | 42.20503 | -70.62551 | 11038 ft | 341 kts | 160° |
| 2026-05-06 15:01 | 42.18356 | -70.61127 | 11639 ft | 345 kts | 160° |
| 2026-05-06 15:01 | 42.16204 | -70.59684 | 12306 ft | 346 kts | 160° |
| 2026-05-06 15:01 | 42.14040 | -70.58235 | 12950 ft | 349 kts | 160° |
| 2026-05-06 15:02 | 42.11848 | -70.56775 | 13524 ft | 353 kts | 160° |
| 2026-05-06 15:02 | 42.09625 | -70.55305 | 14062 ft | 358 kts | 160° |
| 2026-05-06 15:02 | 42.07372 | -70.53822 | 14609 ft | 363 kts | 160° |
| 2026-05-06 15:02 | 42.05090 | -70.52321 | 15137 ft | 367 kts | 160° |
| 2026-05-06 15:03 | 42.02782 | -70.50798 | 15653 ft | 372 kts | 159° |
| 2026-05-06 15:03 | 42.00444 | -70.49254 | 16161 ft | 377 kts | 159° |
| 2026-05-06 15:03 | 41.98078 | -70.47692 | 16690 ft | 381 kts | 159° |
| 2026-05-06 15:03 | 41.95691 | -70.46118 | 17167 ft | 386 kts | 159° |
| 2026-05-06 15:04 | 41.93268 | -70.44519 | 17653 ft | 390 kts | 159° |
| 2026-05-06 15:04 | 41.90818 | -70.42907 | 18125 ft | 394 kts | 159° |
| 2026-05-06 15:04 | 41.88340 | -70.41282 | 18601 ft | 398 kts | 159° |
| 2026-05-06 15:04 | 41.85837 | -70.39643 | 19082 ft | 402 kts | 159° |
| 2026-05-06 15:05 | 41.83311 | -70.37991 | 19559 ft | 405 kts | 159° |
| 2026-05-06 15:05 | 41.80764 | -70.36324 | 20015 ft | 409 kts | 159° |
| 2026-05-06 15:05 | 41.78198 | -70.34642 | 20473 ft | 412 kts | 159° |
| 2026-05-06 15:05 | 41.75610 | -70.32949 | 20901 ft | 416 kts | 159° |
| 2026-05-06 15:06 | 41.73003 | -70.31244 | 21314 ft | 418 kts | 159° |
| 2026-05-06 15:06 | 41.70383 | -70.29534 | 21718 ft | 421 kts | 159° |
| 2026-05-06 15:06 | 41.67737 | -70.27810 | 22102 ft | 424 kts | 159° |
| 2026-05-06 15:06 | 41.65071 | -70.26075 | 22476 ft | 428 kts | 159° |
| 2026-05-06 15:07 | 41.62387 | -70.24331 | 22858 ft | 430 kts | 159° |
| 2026-05-06 15:07 | 41.59760 | -70.22353 | 23209 ft | 438 kts | 150° |
| 2026-05-06 15:07 | 41.57313 | -70.19879 | 23561 ft | 443 kts | 146° |
| 2026-05-06 15:07 | 41.54877 | -70.17333 | 23913 ft | 446 kts | 146° |
| 2026-05-06 15:08 | 41.52422 | -70.14780 | 24257 ft | 449 kts | 147° |
| 2026-05-06 15:08 | 41.49982 | -70.12252 | 24587 ft | 451 kts | 147° |
| 2026-05-06 15:08 | 41.47462 | -70.09646 | 24937 ft | 454 kts | 147° |
| 2026-05-06 15:08 | 41.44958 | -70.07064 | 25260 ft | 456 kts | 147° |
| 2026-05-06 15:09 | 41.42474 | -70.04503 | 25584 ft | 459 kts | 147° |
| 2026-05-06 15:09 | 41.39910 | -70.01857 | 25898 ft | 461 kts | 147° |
| 2026-05-06 15:09 | 41.37372 | -69.99239 | 26202 ft | 464 kts | 147° |
| 2026-05-06 15:09 | 41.34849 | -69.96637 | 26497 ft | 466 kts | 146° |
| 2026-05-06 15:10 | 41.32278 | -69.93992 | 26794 ft | 468 kts | 146° |
| 2026-05-06 15:10 | 41.29692 | -69.91338 | 27070 ft | 471 kts | 146° |
| 2026-05-06 15:10 | 41.27092 | -69.88673 | 27346 ft | 473 kts | 146° |
| 2026-05-06 15:10 | 41.24481 | -69.85992 | 27632 ft | 475 kts | 146° |
| 2026-05-06 15:11 | 41.21857 | -69.83299 | 27913 ft | 478 kts | 146° |
| 2026-05-06 15:11 | 41.19216 | -69.80597 | 28190 ft | 480 kts | 146° |
| 2026-05-06 15:11 | 41.16562 | -69.77886 | 28465 ft | 482 kts | 146° |
| 2026-05-06 15:11 | 41.13896 | -69.75165 | 28734 ft | 484 kts | 146° |
| 2026-05-06 15:12 | 41.11225 | -69.72438 | 29073 ft | 484 kts | 146° |
| 2026-05-06 15:12 | 41.08561 | -69.69720 | 29419 ft | 484 kts | 146° |
| 2026-05-06 15:12 | 41.05889 | -69.67001 | 29763 ft | 484 kts | 146° |
| 2026-05-06 15:12 | 41.03218 | -69.64285 | 30097 ft | 484 kts | 146° |
| 2026-05-06 15:13 | 41.00550 | -69.61566 | 30440 ft | 484 kts | 145° |
| 2026-05-06 15:13 | 40.98055 | -69.58546 | 30754 ft | 488 kts | 136° |
| 2026-05-06 15:13 | 40.95763 | -69.55219 | 31065 ft | 489 kts | 135° |
| 2026-05-06 15:13 | 40.93501 | -69.51933 | 31363 ft | 489 kts | 135° |
| 2026-05-06 15:14 | 40.91203 | -69.48612 | 31658 ft | 489 kts | 135° |
| 2026-05-06 15:14 | 40.88899 | -69.45301 | 31971 ft | 489 kts | 136° |
| 2026-05-06 15:14 | 40.86599 | -69.41999 | 32265 ft | 489 kts | 136° |
| 2026-05-06 15:14 | 40.84294 | -69.38692 | 32549 ft | 489 kts | 136° |
| 2026-05-06 15:15 | 40.81988 | -69.35387 | 32826 ft | 489 kts | 136° |
| 2026-05-06 15:15 | 40.79681 | -69.32083 | 33101 ft | 489 kts | 136° |
| 2026-05-06 15:15 | 40.77374 | -69.28775 | 33358 ft | 490 kts | 135° |
| 2026-05-06 15:15 | 40.75066 | -69.25468 | 33632 ft | 490 kts | 136° |
| 2026-05-06 15:16 | 40.72758 | -69.22169 | 33914 ft | 489 kts | 136° |
| 2026-05-06 15:16 | 40.70452 | -69.18870 | 34163 ft | 489 kts | 135° |
| 2026-05-06 15:16 | 40.68145 | -69.15571 | 34408 ft | 490 kts | 135° |
| 2026-05-06 15:16 | 40.65834 | -69.12274 | 34655 ft | 490 kts | 135° |
| 2026-05-06 15:17 | 40.63519 | -69.08979 | 34889 ft | 490 kts | 135° |
| 2026-05-06 15:17 | 40.61202 | -69.05677 | 35014 ft | 491 kts | 135° |
| 2026-05-06 15:17 | 40.58889 | -69.02377 | 35041 ft | 492 kts | 135° |
| 2026-05-06 15:18 | 40.54245 | -68.95777 | 35035 ft | 491 kts | 135° |
| 2026-05-06 15:18 | 40.49598 | -68.89194 | 35037 ft | 491 kts | 135° |
| 2026-05-06 15:19 | 40.44947 | -68.82629 | 35033 ft | 491 kts | 135° |
| 2026-05-06 15:19 | 40.40323 | -68.76123 | 35031 ft | 490 kts | 135° |
| 2026-05-06 15:20 | 40.35634 | -68.69542 | 35039 ft | 490 kts | 135° |
| 2026-05-06 15:20 | 40.30984 | -68.63013 | 35039 ft | 490 kts | 135° |
| 2026-05-06 15:21 | 40.26362 | -68.56521 | 35040 ft | 490 kts | 135° |
| 2026-05-06 15:21 | 40.21699 | -68.50005 | 35042 ft | 490 kts | 135° |
| 2026-05-06 15:22 | 40.17038 | -68.43510 | 35043 ft | 489 kts | 135° |
| 2026-05-06 15:22 | 40.12372 | -68.37026 | 35042 ft | 490 kts | 135° |
| 2026-05-06 15:23 | 40.07714 | -68.30550 | 35047 ft | 489 kts | 135° |
| 2026-05-06 15:23 | 40.03048 | -68.24079 | 35053 ft | 489 kts | 135° |
| 2026-05-06 15:24 | 39.98375 | -68.17624 | 35056 ft | 489 kts | 135° |
| 2026-05-06 15:24 | 39.93323 | -68.11753 | 35060 ft | 485 kts | 149° |
| 2026-05-06 15:25 | 39.87313 | -68.07926 | 35061 ft | 480 kts | 161° |
| 2026-05-06 15:25 | 39.81093 | -68.04726 | 35062 ft | 480 kts | 161° |
| 2026-05-06 15:26 | 39.74918 | -68.01544 | 35061 ft | 481 kts | 161° |
| 2026-05-06 15:26 | 39.68693 | -67.98341 | 35062 ft | 481 kts | 161° |
| 2026-05-06 15:27 | 39.62472 | -67.95152 | 35063 ft | 481 kts | 161° |
| 2026-05-06 15:27 | 39.56246 | -67.91964 | 35059 ft | 481 kts | 161° |
| 2026-05-06 15:28 | 39.50013 | -67.88785 | 35058 ft | 482 kts | 161° |
| 2026-05-06 15:28 | 39.43774 | -67.85608 | 35054 ft | 482 kts | 161° |
| 2026-05-06 15:29 | 39.37524 | -67.82422 | 35058 ft | 483 kts | 161° |
| 2026-05-06 15:29 | 39.31266 | -67.79236 | 35057 ft | 484 kts | 161° |
| 2026-05-06 15:30 | 39.25004 | -67.76069 | 35058 ft | 484 kts | 161° |
| 2026-05-06 15:30 | 39.18736 | -67.72891 | 35060 ft | 484 kts | 161° |
| 2026-05-06 15:31 | 39.12502 | -67.69746 | 35063 ft | 485 kts | 161° |
| 2026-05-06 15:31 | 39.06224 | -67.66582 | 35060 ft | 485 kts | 161° |
| 2026-05-06 15:32 | 38.96788 | -67.61847 | 35057 ft | 486 kts | 161° |
| 2026-05-06 15:32 | 38.90480 | -67.58736 | 35054 ft | 485 kts | 166° |
| 2026-05-06 15:33 | 38.83908 | -67.57280 | 35052 ft | 477 kts | 183° |
| 2026-05-06 15:33 | 38.77281 | -67.57309 | 35051 ft | 477 kts | 184° |
| 2026-05-06 15:34 | 38.71765 | -67.57317 | 35051 ft | 477 kts | 184° |
| 2026-05-06 15:34 | 38.65119 | -67.57305 | 35054 ft | 478 kts | 184° |
| 2026-05-06 15:35 | 38.58457 | -67.57313 | 35059 ft | 479 kts | 184° |
| 2026-05-06 15:35 | 38.51785 | -67.57321 | 35063 ft | 480 kts | 184° |
| 2026-05-06 15:36 | 38.45110 | -67.57330 | 35060 ft | 480 kts | 184° |